Time;durP1;ratioP1;P1;durP2;ratioP2;P2;SDS_P1;SDS_P2;PMS_P1;PMS_P2;Temp;Humidity;BMP_temperature;BMP_pressure;BME280_temperature;BME280_humidity;BME280_pressure;Samples;Min_cycle;Max_cycle;Signal;HPM_P1;HPM_P2
2022/05/19 00:01:22;;;;;;;4.97;2.33;;;;;;;;;;5072881;28;20093;-69
2022/05/19 00:03:51;;;;;;;8.23;3.25;;;;;;;;;;5074877;28;20145;-69
2022/05/19 00:06:18;;;;;;;6.03;2.40;;;;;;;;;;5086363;28;20052;-69
2022/05/19 00:08:45;;;;;;;6.15;2.60;;;;;;;;;;5063126;28;20056;-70
2022/05/19 00:11:13;;;;;;;4.53;2.05;;;;;;;;;;5072090;28;20047;-69
2022/05/19 00:13:40;;;;;;;7.28;3.38;;;;;;;;;;5087049;28;20044;-68
2022/05/19 00:16:07;;;;;;;6.30;3.22;;;;;;;;;;5068247;28;20055;-66
2022/05/19 00:18:34;;;;;;;6.30;3.33;;;;;;;;;;5070999;28;20052;-70
2022/05/19 00:21:01;;;;;;;6.05;2.35;;;;;;;;;;5083282;28;20047;-69
2022/05/19 00:23:27;;;;;;;3.80;2.10;;;;;;;;;;5086591;28;20056;-65
2022/05/19 00:25:54;;;;;;;14.20;3.20;;;;;;;;;;5082043;28;20494;-69
2022/05/19 00:28:22;;;;;;;7.45;3.92;;;;;;;;;;5071162;28;20086;-64
2022/05/19 00:30:49;;;;;;;7.97;2.47;;;;;;;;;;5066115;28;20055;-68
2022/05/19 00:33:16;;;;;;;5.80;2.78;;;;;;;;;;5072167;28;20047;-65
2022/05/19 00:35:42;;;;;;;8.90;2.33;;;;;;;;;;5073622;28;20047;-70
2022/05/19 00:38:09;;;;;;;8.25;3.65;;;;;;;;;;5066323;28;20075;-63
2022/05/19 00:40:36;;;;;;;7.38;3.60;;;;;;;;;;5070462;28;20048;-62
2022/05/19 00:43:03;;;;;;;9.02;2.95;;;;;;;;;;5064118;28;20048;-64
2022/05/19 00:45:38;;;;;;;11.90;4.88;;;;;;;;;;5070713;28;20051;-67
2022/05/19 00:48:08;;;;;;;6.00;2.55;;;;;;;;;;5064346;28;20060;-63
2022/05/19 00:50:41;;;;;;;14.45;6.18;;;;;;;;;;5071007;28;20112;-67
2022/05/19 00:53:10;;;;;;;7.10;3.03;;;;;;;;;;5055872;28;20059;-65
2022/05/19 00:55:40;;;;;;;6.90;3.58;;;;;;;;;;5085506;28;20052;-65
2022/05/19 00:58:10;;;;;;;6.45;3.00;;;;;;;;;;5070354;28;20135;-65
2022/05/19 01:00:38;;;;;;;18.55;6.13;;;;;;;;;;5064349;28;20048;-64
2022/05/19 01:03:05;;;;;;;8.95;4.47;;;;;;;;;;5070959;28;20143;-68
2022/05/19 01:05:33;;;;;;;13.48;5.72;;;;;;;;;;5053543;28;20055;-68
2022/05/19 01:08:05;;;;;;;7.82;3.53;;;;;;;;;;5071433;28;20055;-68
2022/05/19 01:10:32;;;;;;;6.32;2.97;;;;;;;;;;5079492;28;20132;-64
2022/05/19 01:12:58;;;;;;;6.50;2.88;;;;;;;;;;5071931;28;20044;-68
2022/05/19 01:15:25;;;;;;;10.60;3.75;;;;;;;;;;5066146;28;20055;-68
2022/05/19 01:17:53;;;;;;;16.20;5.88;;;;;;;;;;5068764;28;20048;-67
2022/05/19 01:20:20;;;;;;;;;;;;;;;;;;5079573;28;20051;-67
2022/05/19 01:22:52;;;;;;;10.00;4.20;;;;;;;;;;5086487;28;19952;-66
2022/05/19 01:25:27;;;;;;;12.52;5.78;;;;;;;;;;5072540;28;20052;-68
2022/05/19 01:28:04;;;;;;;8.07;3.22;;;;;;;;;;5065928;28;20048;-66
2022/05/19 01:30:30;;;;;;;9.10;3.47;;;;;;;;;;5081743;28;20136;-65
2022/05/19 01:32:57;;;;;;;7.32;3.47;;;;;;;;;;5073828;28;20059;-68
2022/05/19 01:35:23;;;;;;;9.02;3.58;;;;;;;;;;5070064;28;20059;-68
2022/05/19 01:37:51;;;;;;;12.70;5.75;;;;;;;;;;5064978;28;20195;-65
2022/05/19 01:40:32;;;;;;;9.43;4.30;;;;;;;;;;5087453;28;20050;-65
2022/05/19 01:43:04;;;;;;;8.55;4.00;;;;;;;;;;5064130;28;20055;-65
2022/05/19 01:45:40;;;;;;;9.88;5.35;;;;;;;;;;5083764;28;20063;-67
2022/05/19 01:48:12;;;;;;;11.95;5.57;;;;;;;;;;5085234;28;20092;-68
2022/05/19 01:50:42;;;;;;;14.18;4.45;;;;;;;;;;5063336;28;20040;-68
2022/05/19 01:53:12;;;;;;;15.68;7.00;;;;;;;;;;5070151;28;20052;-67
2022/05/19 01:55:42;;;;;;;11.10;4.28;;;;;;;;;;5080368;28;20109;-67
2022/05/19 01:58:13;;;;;;;15.07;6.88;;;;;;;;;;5068718;28;20052;-63
2022/05/19 02:00:42;;;;;;;13.27;6.15;;;;;;;;;;5063707;28;20055;-65
2022/05/19 02:03:13;;;;;;;9.43;4.47;;;;;;;;;;5069785;28;20063;-68
2022/05/19 02:05:42;;;;;;;14.23;5.55;;;;;;;;;;5082464;28;20139;-67
2022/05/19 02:08:10;;;;;;;12.60;6.22;;;;;;;;;;5068674;28;20123;-64
2022/05/19 02:10:39;;;;;;;11.25;4.85;;;;;;;;;;5071398;28;20067;-64
2022/05/19 02:13:05;;;;;;;;;;;;;;;;;;5066415;28;20076;-68
2022/05/19 02:15:35;;;;;;;24.48;10.60;;;;;;;;;;5071516;28;20151;-68
2022/05/19 02:18:04;;;;;;;15.88;7.15;;;;;;;;;;5063303;28;20149;-63
2022/05/19 02:20:31;;;;;;;31.73;10.27;;;;;;;;;;5069576;28;20060;-63
2022/05/19 02:22:58;;;;;;;14.68;7.25;;;;;;;;;;5064341;28;20052;-67
2022/05/19 02:25:28;;;;;;;11.18;5.38;;;;;;;;;;5069235;28;20059;-65
2022/05/19 02:27:58;;;;;;;12.43;5.22;;;;;;;;;;5067990;28;20054;-61
2022/05/19 02:30:26;;;;;;;13.02;5.70;;;;;;;;;;5089201;28;20074;-67
2022/05/19 02:32:53;;;;;;;12.02;6.03;;;;;;;;;;5082854;28;20055;-69
2022/05/19 02:35:22;;;;;;;21.88;10.52;;;;;;;;;;5090978;28;20063;-67
2022/05/19 02:37:51;;;;;;;11.85;6.22;;;;;;;;;;5107447;28;20051;-67
2022/05/19 02:40:18;;;;;;;11.88;5.95;;;;;;;;;;5091524;28;20047;-67
2022/05/19 02:42:45;;;;;;;16.33;6.78;;;;;;;;;;5093125;28;20056;-69
2022/05/19 02:45:13;;;;;;;22.52;9.82;;;;;;;;;;5052051;28;20071;-69
2022/05/19 02:47:41;;;;;;;15.93;5.60;;;;;;;;;;5063867;28;20049;-69
2022/05/19 02:50:08;;;;;;;22.67;8.75;;;;;;;;;;5066234;28;20040;-68
2022/05/19 02:52:36;;;;;;;15.88;6.65;;;;;;;;;;5072739;28;20044;-69
2022/05/19 02:55:03;;;;;;;13.80;6.60;;;;;;;;;;5097084;28;20060;-65
2022/05/19 02:57:30;;;;;;;13.93;6.60;;;;;;;;;;5093032;28;20051;-68
2022/05/19 02:59:56;;;;;;;18.55;8.02;;;;;;;;;;5065550;28;20105;-69
2022/05/19 03:02:23;;;;;;;20.23;10.05;;;;;;;;;;5052874;28;20064;-67
2022/05/19 03:04:49;;;;;;;21.23;11.13;;;;;;;;;;5052019;28;20076;-69
2022/05/19 03:07:16;;;;;;;25.02;6.90;;;;;;;;;;5069464;28;20111;-68
2022/05/19 03:09:45;;;;;;;16.48;7.80;;;;;;;;;;5063807;28;20055;-67
2022/05/19 03:12:12;;;;;;;18.83;9.68;;;;;;;;;;5069371;28;20059;-66
2022/05/19 03:14:38;;;;;;;12.50;5.55;;;;;;;;;;5066573;28;20140;-67
2022/05/19 03:17:06;;;;;;;12.30;5.95;;;;;;;;;;5073298;28;20091;-67
2022/05/19 03:19:32;;;;;;;15.48;7.82;;;;;;;;;;5067535;28;20067;-69
2022/05/19 03:21:59;;;;;;;14.90;8.48;;;;;;;;;;5092672;28;20056;-66
2022/05/19 03:24:25;;;;;;;18.95;9.02;;;;;;;;;;5075277;28;20136;-68
2022/05/19 03:26:53;;;;;;;22.98;9.35;;;;;;;;;;5083624;28;20048;-67
2022/05/19 03:29:20;;;;;;;18.88;8.75;;;;;;;;;;5072550;28;20107;-66
2022/05/19 03:31:47;;;;;;;21.73;10.45;;;;;;;;;;5062587;28;20060;-65
2022/05/19 03:34:16;;;;;;;32.50;10.38;;;;;;;;;;5068793;28;20131;-67
2022/05/19 03:36:44;;;;;;;21.45;10.60;;;;;;;;;;5081226;28;20091;-67
2022/05/19 03:39:11;;;;;;;21.93;9.37;;;;;;;;;;5092459;28;20051;-68
2022/05/19 03:41:37;;;;;;;17.42;8.48;;;;;;;;;;5085394;28;20297;-68
2022/05/19 03:44:06;;;;;;;23.63;9.65;;;;;;;;;;5091108;28;20140;-67
2022/05/19 03:46:32;;;;;;;13.27;6.30;;;;;;;;;;5079369;28;20067;-68
2022/05/19 03:48:59;;;;;;;19.65;9.30;;;;;;;;;;5075080;28;20082;-68
2022/05/19 03:51:27;;;;;;;14.38;8.10;;;;;;;;;;5063325;28;20036;-68
2022/05/19 03:53:53;;;;;;;14.07;6.72;;;;;;;;;;5053671;28;20048;-68
2022/05/19 03:56:21;;;;;;;9.88;5.30;;;;;;;;;;5082658;28;20067;-65
2022/05/19 03:58:48;;;;;;;7.70;4.00;;;;;;;;;;5071505;28;20052;-64
2022/05/19 04:01:16;;;;;;;7.28;3.47;;;;;;;;;;5063994;28;20148;-63
2022/05/19 04:03:43;;;;;;;8.27;3.33;;;;;;;;;;5050731;28;21793;-66
2022/05/19 04:06:09;;;;;;;8.13;3.45;;;;;;;;;;5051945;28;20060;-68
2022/05/19 04:08:36;;;;;;;5.38;1.92;;;;;;;;;;5046834;28;20056;-66
2022/05/19 04:11:03;;;;;;;8.90;3.85;;;;;;;;;;5051377;28;20060;-64
2022/05/19 04:13:30;;;;;;;8.10;3.72;;;;;;;;;;5062954;28;20049;-62
2022/05/19 04:15:56;;;;;;;9.02;3.45;;;;;;;;;;5051468;28;20056;-62
2022/05/19 04:18:25;;;;;;;5.28;2.00;;;;;;;;;;5060600;28;20067;-61
2022/05/19 04:20:51;;;;;;;3.20;1.92;;;;;;;;;;5057790;28;20106;-63
2022/05/19 04:23:18;;;;;;;8.40;3.40;;;;;;;;;;5049747;28;20056;-66
2022/05/19 04:25:44;;;;;;;3.63;1.60;;;;;;;;;;5051319;28;20109;-69
2022/05/19 04:28:15;;;;;;;5.47;2.08;;;;;;;;;;5045930;28;20052;-65
2022/05/19 04:30:42;;;;;;;5.50;1.83;;;;;;;;;;5050801;28;20056;-67
2022/05/19 04:33:09;;;;;;;3.25;1.33;;;;;;;;;;5047232;28;20059;-69
2022/05/19 04:35:37;;;;;;;5.55;1.50;;;;;;;;;;5050716;28;20125;-66
2022/05/19 04:38:09;;;;;;;6.78;2.95;;;;;;;;;;5045239;28;20052;-68
2022/05/19 04:40:36;;;;;;;7.32;3.08;;;;;;;;;;5051552;28;20056;-65
2022/05/19 04:43:03;;;;;;;5.50;2.95;;;;;;;;;;5061631;28;20048;-67
2022/05/19 04:45:30;;;;;;;4.35;2.10;;;;;;;;;;5050711;28;20052;-66
2022/05/19 04:47:58;;;;;;;5.38;2.67;;;;;;;;;;5028191;28;20078;-63
2022/05/19 04:50:24;;;;;;;5.05;2.08;;;;;;;;;;5051046;28;20055;-66
2022/05/19 04:52:52;;;;;;;3.42;2.03;;;;;;;;;;5052087;28;20045;-65
2022/05/19 04:55:19;;;;;;;3.63;1.63;;;;;;;;;;5046351;28;20056;-65
2022/05/19 04:57:46;;;;;;;6.88;2.10;;;;;;;;;;5050685;28;20060;-66
2022/05/19 05:00:17;;;;;;;5.63;2.58;;;;;;;;;;5061032;28;20060;-68
2022/05/19 05:02:44;;;;;;;5.20;2.38;;;;;;;;;;5067385;28;20053;-63
2022/05/19 05:05:11;;;;;;;6.60;2.50;;;;;;;;;;5052636;28;20045;-63
2022/05/19 05:07:38;;;;;;;5.03;2.30;;;;;;;;;;5058679;28;20089;-65
2022/05/19 05:10:06;;;;;;;5.20;1.70;;;;;;;;;;5075439;28;20072;-65
2022/05/19 05:12:33;;;;;;;6.78;1.85;;;;;;;;;;5068033;28;20097;-65
2022/05/19 05:15:00;;;;;;;5.03;2.10;;;;;;;;;;5058416;28;20063;-67
2022/05/19 05:17:27;;;;;;;3.53;1.60;;;;;;;;;;5067837;28;20101;-65
2022/05/19 05:19:53;;;;;;;3.40;1.50;;;;;;;;;;5066899;28;20056;-67
2022/05/19 05:22:20;;;;;;;4.25;1.58;;;;;;;;;;5057832;28;20044;-62
2022/05/19 05:24:46;;;;;;;5.60;1.92;;;;;;;;;;5070499;28;20105;-65
2022/05/19 05:27:15;;;;;;;5.15;1.30;;;;;;;;;;5060364;28;20044;-64
2022/05/19 05:29:42;;;;;;;6.10;1.52;;;;;;;;;;5083845;28;20056;-65
2022/05/19 05:32:09;;;;;;;4.00;1.67;;;;;;;;;;5060696;28;20079;-65
2022/05/19 05:34:36;;;;;;;4.72;1.67;;;;;;;;;;5066535;28;20146;-64
2022/05/19 05:37:04;;;;;;;4.03;1.55;;;;;;;;;;5061956;28;20055;-62
2022/05/19 05:39:30;;;;;;;4.45;1.42;;;;;;;;;;5079766;28;20051;-65
2022/05/19 05:41:56;;;;;;;3.65;1.70;;;;;;;;;;5066098;28;20080;-64
2022/05/19 05:44:25;;;;;;;3.33;1.70;;;;;;;;;;5057852;28;20046;-67
2022/05/19 05:46:58;;;;;;;5.05;2.28;;;;;;;;;;5040198;28;20097;-64
2022/05/19 05:49:24;;;;;;;3.22;1.50;;;;;;;;;;5071978;28;20064;-65
2022/05/19 05:51:51;;;;;;;5.05;1.75;;;;;;;;;;5067001;28;20152;-64
2022/05/19 05:54:17;;;;;;;4.05;1.80;;;;;;;;;;5072401;28;20056;-67
2022/05/19 05:56:44;;;;;;;3.47;1.52;;;;;;;;;;5069219;28;20075;-63
2022/05/19 05:59:11;;;;;;;2.85;1.30;;;;;;;;;;5079596;28;20057;-65
2022/05/19 06:01:39;;;;;;;3.38;1.48;;;;;;;;;;5063843;28;20140;-64
2022/05/19 06:04:05;;;;;;;4.03;1.55;;;;;;;;;;5046774;28;20111;-62
2022/05/19 06:06:32;;;;;;;4.65;1.63;;;;;;;;;;5057923;28;20056;-65
2022/05/19 06:08:59;;;;;;;3.10;1.58;;;;;;;;;;5064638;28;20066;-67
2022/05/19 06:11:25;;;;;;;5.72;1.80;;;;;;;;;;5074337;28;20139;-63
2022/05/19 06:13:52;;;;;;;3.75;1.67;;;;;;;;;;5071140;28;20056;-64
2022/05/19 06:16:19;;;;;;;4.10;1.63;;;;;;;;;;5059071;28;20176;-62
2022/05/19 06:18:48;;;;;;;5.25;1.48;;;;;;;;;;5085344;28;20074;-65
2022/05/19 06:21:15;;;;;;;2.97;1.60;;;;;;;;;;5068888;28;20076;-63
2022/05/19 06:23:42;;;;;;;3.25;1.50;;;;;;;;;;5080527;28;20078;-65
2022/05/19 06:26:08;;;;;;;3.08;1.65;;;;;;;;;;5070033;28;20048;-65
2022/05/19 06:28:35;;;;;;;3.97;1.27;;;;;;;;;;5077836;28;20040;-64
2022/05/19 06:31:02;;;;;;;4.70;1.50;;;;;;;;;;5087830;28;20054;-65
2022/05/19 06:33:28;;;;;;;5.72;1.35;;;;;;;;;;5060889;28;20131;-65
2022/05/19 06:35:56;;;;;;;4.55;1.60;;;;;;;;;;5070797;28;20052;-65
2022/05/19 06:38:23;;;;;;;1.70;1.20;;;;;;;;;;5062492;28;20093;-63
2022/05/19 06:40:49;;;;;;;4.13;1.08;;;;;;;;;;5066831;28;20052;-65
2022/05/19 06:43:19;;;;;;;17.10;2.10;;;;;;;;;;5070970;28;20072;-64
2022/05/19 06:45:45;;;;;;;3.63;1.80;;;;;;;;;;5061526;28;20056;-66
2022/05/19 06:48:12;;;;;;;7.03;2.78;;;;;;;;;;5070689;28;20052;-65
2022/05/19 06:50:39;;;;;;;3.75;1.70;;;;;;;;;;5061145;28;20052;-65
2022/05/19 06:53:07;;;;;;;4.95;1.80;;;;;;;;;;5071777;28;20052;-65
2022/05/19 06:55:35;;;;;;;4.72;1.67;;;;;;;;;;5060921;28;20060;-62
2022/05/19 06:58:03;;;;;;;4.60;1.80;;;;;;;;;;5087525;28;20059;-63
2022/05/19 07:00:31;;;;;;;4.10;1.80;;;;;;;;;;5071319;28;20052;-63
2022/05/19 07:02:58;;;;;;;5.10;1.67;;;;;;;;;;5059383;28;20052;-64
2022/05/19 07:05:26;;;;;;;4.30;1.65;;;;;;;;;;5070375;28;20067;-66
2022/05/19 07:07:59;;;;;;;2.80;1.70;;;;;;;;;;5062529;28;20048;-65
2022/05/19 07:10:27;;;;;;;3.00;1.67;;;;;;;;;;5086933;28;20163;-65
2022/05/19 07:12:54;;;;;;;;;;;;;;;;;;5061679;28;20056;-63
2022/05/19 07:15:21;;;;;;;5.53;1.63;;;;;;;;;;5086117;28;19928;-63
2022/05/19 07:17:48;;;;;;;3.03;1.65;;;;;;;;;;5060367;28;20084;-63
2022/05/19 07:23:05;;;;;;;5.07;1.70;;;;;;;;;;5041032;28;20044;-65
2022/05/19 07:25:33;;;;;;;5.72;1.75;;;;;;;;;;5068267;28;20049;-63
2022/05/19 07:28:00;;;;;;;;;;;;;;;;;;5070664;28;20052;-62
2022/05/19 07:30:26;;;;;;;3.55;1.77;;;;;;;;;;5076609;28;19968;-63
2022/05/19 07:32:54;;;;;;;2.15;1.40;;;;;;;;;;5070650;28;20147;-63
2022/05/19 07:35:21;;;;;;;3.67;1.42;;;;;;;;;;5059174;28;20059;-63
2022/05/19 07:37:48;;;;;;;2.75;1.40;;;;;;;;;;5070574;28;20048;-63
2022/05/19 07:40:16;;;;;;;7.13;2.42;;;;;;;;;;5075763;28;20175;-62
2022/05/19 07:42:43;;;;;;;2.35;1.42;;;;;;;;;;5068707;28;20040;-63
2022/05/19 07:45:11;;;;;;;3.03;1.20;;;;;;;;;;5080783;28;20052;-63
2022/05/19 07:47:37;;;;;;;2.28;1.23;;;;;;;;;;5061509;28;20076;-64
2022/05/19 07:50:05;;;;;;;3.33;1.48;;;;;;;;;;5084782;28;20063;-65
2022/05/19 07:52:32;;;;;;;7.00;2.33;;;;;;;;;;5059530;28;20063;-65
2022/05/19 07:54:58;;;;;;;4.80;1.80;;;;;;;;;;5070208;28;20084;-63
2022/05/19 07:57:25;;;;;;;3.63;1.60;;;;;;;;;;5050061;28;20052;-64
2022/05/19 07:59:54;;;;;;;3.45;1.60;;;;;;;;;;5085196;28;20089;-64
2022/05/19 08:02:20;;;;;;;6.25;2.35;;;;;;;;;;5057037;28;20051;-63
2022/05/19 08:04:47;;;;;;;4.63;1.88;;;;;;;;;;5069245;28;20055;-63
2022/05/19 08:07:14;;;;;;;7.05;1.80;;;;;;;;;;5079637;28;20056;-63
2022/05/19 08:17:52;;;;;;;4.65;1.65;;;;;;;;;;5084736;28;20066;-64
2022/05/19 08:20:19;;;;;;;5.05;1.88;;;;;;;;;;5075844;28;20048;-64
2022/05/19 08:22:46;;;;;;;6.40;2.45;;;;;;;;;;5068775;28;20055;-63
2022/05/19 08:25:13;;;;;;;5.07;2.20;;;;;;;;;;5059538;28;20055;-62
2022/05/19 08:27:44;;;;;;;3.28;1.60;;;;;;;;;;5068230;28;20059;-64
2022/05/19 08:30:13;;;;;;;4.47;1.70;;;;;;;;;;5057397;28;20085;-65
2022/05/19 08:32:39;;;;;;;3.20;1.52;;;;;;;;;;5082635;28;20052;-64
2022/05/19 08:35:07;;;;;;;3.58;1.65;;;;;;;;;;5069324;28;20060;-65
2022/05/19 08:37:35;;;;;;;4.32;1.90;;;;;;;;;;5059529;28;20060;-65
2022/05/19 08:40:01;;;;;;;4.80;2.00;;;;;;;;;;5069293;28;20056;-65
2022/05/19 08:42:29;;;;;;;4.93;2.03;;;;;;;;;;5059935;28;20108;-65
2022/05/19 08:44:56;;;;;;;5.38;2.47;;;;;;;;;;5067786;28;20086;-65
2022/05/19 08:47:26;;;;;;;5.22;1.70;;;;;;;;;;5059409;28;20056;-64
2022/05/19 08:49:54;;;;;;;5.30;2.42;;;;;;;;;;5068254;28;20080;-62
2022/05/19 08:52:22;;;;;;;8.95;2.20;;;;;;;;;;5077444;28;20067;-64
2022/05/19 08:54:49;;;;;;;4.97;2.28;;;;;;;;;;5065887;28;20060;-63
2022/05/19 08:57:20;;;;;;;7.72;2.42;;;;;;;;;;5068264;28;20056;-63
2022/05/19 08:59:53;;;;;;;5.05;1.90;;;;;;;;;;5056708;28;20105;-63
2022/05/19 09:02:29;;;;;;;7.68;2.80;;;;;;;;;;5061080;28;20058;-64
2022/05/19 09:05:00;;;;;;;5.38;2.65;;;;;;;;;;5036364;28;20123;-64
2022/05/19 09:10:18;;;;;;;5.05;1.85;;;;;;;;;;5024638;28;20045;-65
2022/05/19 09:12:45;;;;;;;5.53;2.92;;;;;;;;;;5046478;28;20107;-63
2022/05/19 09:15:12;;;;;;;6.15;2.08;;;;;;;;;;5053950;28;20048;-63
2022/05/19 09:17:43;;;;;;;6.30;2.42;;;;;;;;;;5063165;28;20044;-64
2022/05/19 09:20:12;;;;;;;4.68;2.20;;;;;;;;;;5041748;28;20072;-63
2022/05/19 09:22:39;;;;;;;4.95;2.22;;;;;;;;;;5041388;28;20109;-63
2022/05/19 09:25:07;;;;;;;4.28;1.63;;;;;;;;;;5065953;28;20072;-64
2022/05/19 09:27:36;;;;;;;4.80;1.83;;;;;;;;;;5038818;28;20049;-65
2022/05/19 09:30:03;;;;;;;11.57;3.72;;;;;;;;;;5046361;28;20060;-65
2022/05/19 09:32:31;;;;;;;7.10;1.92;;;;;;;;;;5042746;28;20060;-63
2022/05/19 09:35:05;;;;;;;4.30;1.93;;;;;;;;;;5047455;28;20063;-65
2022/05/19 09:37:37;;;;;;;6.85;3.15;;;;;;;;;;5030189;28;20309;-64
2022/05/19 09:40:08;;;;;;;4.13;1.75;;;;;;;;;;5046780;28;20063;-66
2022/05/19 09:42:36;;;;;;;4.05;2.03;;;;;;;;;;5045159;28;20060;-64
2022/05/19 09:45:03;;;;;;;8.57;3.20;;;;;;;;;;5057418;28;20149;-64
2022/05/19 09:47:32;;;;;;;6.13;3.15;;;;;;;;;;5045656;28;20059;-65
2022/05/19 09:50:06;;;;;;;4.35;2.33;;;;;;;;;;5036367;28;20048;-63
2022/05/19 09:52:33;;;;;;;10.25;2.60;;;;;;;;;;5047145;28;20053;-65
2022/05/19 09:55:01;;;;;;;3.42;1.85;;;;;;;;;;5037021;28;20040;-64
2022/05/19 09:57:34;;;;;;;9.15;3.35;;;;;;;;;;5046853;28;20048;-63
2022/05/19 10:00:04;;;;;;;6.13;3.13;;;;;;;;;;5037668;28;20064;-65
2022/05/19 10:02:32;;;;;;;5.20;3.05;;;;;;;;;;5043711;28;20069;-62
2022/05/19 10:04:59;;;;;;;7.13;2.90;;;;;;;;;;5036342;28;20082;-63
2022/05/19 10:07:30;;;;;;;6.07;2.63;;;;;;;;;;5047186;28;20106;-63
2022/05/19 10:09:57;;;;;;;7.35;3.70;;;;;;;;;;5047473;28;20061;-63
2022/05/19 10:12:25;;;;;;;3.53;1.90;;;;;;;;;;5053619;28;20091;-63
2022/05/19 10:14:59;;;;;;;4.32;2.28;;;;;;;;;;5037570;28;20059;-64
2022/05/19 10:17:32;;;;;;;4.95;1.92;;;;;;;;;;5031799;28;20059;-67
2022/05/19 10:20:02;;;;;;;4.60;2.33;;;;;;;;;;5041532;28;20041;-66
2022/05/19 10:22:39;;;;;;;7.38;2.53;;;;;;;;;;5024575;28;20049;-66
2022/05/19 10:25:13;;;;;;;8.15;3.30;;;;;;;;;;5046767;28;20137;-65
2022/05/19 10:33:21;;;;;;;10.55;3.40;;;;;;;;;;5052659;28;20061;-66
2022/05/19 10:35:54;;;;;;;7.18;3.05;;;;;;;;;;5046486;28;20060;-65
2022/05/19 10:38:42;;;;;;;6.72;3.42;;;;;;;;;;5041636;28;20070;-64
2022/05/19 10:41:14;;;;;;;6.35;3.00;;;;;;;;;;5047232;28;20144;-64
2022/05/19 10:44:01;;;;;;;9.40;4.03;;;;;;;;;;5062817;28;20049;-63
2022/05/19 10:46:32;;;;;;;5.15;2.50;;;;;;;;;;5043114;28;20052;-65
2022/05/19 10:49:10;;;;;;;8.43;3.28;;;;;;;;;;5046000;28;20052;-65
2022/05/19 10:51:41;;;;;;;8.30;3.22;;;;;;;;;;5037713;28;20056;-65
2022/05/19 10:54:27;;;;;;;6.40;2.90;;;;;;;;;;5045926;28;20061;-66
2022/05/19 10:57:04;;;;;;;6.10;2.88;;;;;;;;;;5055144;28;20057;-64
2022/05/19 10:59:37;;;;;;;7.72;3.38;;;;;;;;;;5049438;28;20056;-65
2022/05/19 11:02:13;;;;;;;5.60;2.47;;;;;;;;;;5040275;28;20116;-66
2022/05/19 11:04:52;;;;;;;7.90;2.35;;;;;;;;;;5049865;28;20110;-65
2022/05/19 11:07:27;;;;;;;7.47;2.50;;;;;;;;;;5040764;28;20120;-65
2022/05/19 11:10:01;;;;;;;9.75;2.45;;;;;;;;;;5051309;28;20056;-66
2022/05/19 11:12:31;;;;;;;6.68;2.30;;;;;;;;;;5040654;28;20072;-66
2022/05/19 11:15:02;;;;;;;6.65;2.80;;;;;;;;;;5050886;28;20052;-66
2022/05/19 11:17:37;;;;;;;5.50;2.53;;;;;;;;;;5049107;28;20143;-65
2022/05/19 11:20:07;;;;;;;3.83;1.90;;;;;;;;;;5045054;28;20053;-65
2022/05/19 11:22:35;;;;;;;5.43;2.10;;;;;;;;;;5048358;28;20048;-63
2022/05/19 11:27:52;;;;;;;5.95;1.92;;;;;;;;;;5068013;28;20052;-63
2022/05/19 11:30:20;;;;;;;5.25;2.40;;;;;;;;;;5044942;28;20060;-62
2022/05/19 11:32:49;;;;;;;5.70;2.50;;;;;;;;;;5048980;28;20110;-66
2022/05/19 11:35:20;;;;;;;3.95;1.95;;;;;;;;;;5042940;28;20135;-66
2022/05/19 11:37:52;;;;;;;4.40;2.03;;;;;;;;;;5049571;28;20079;-66
2022/05/19 11:40:22;;;;;;;6.95;2.80;;;;;;;;;;5060945;28;20048;-66
2022/05/19 11:42:51;;;;;;;3.88;1.90;;;;;;;;;;5049859;28;20064;-66
2022/05/19 11:45:20;;;;;;;5.03;2.28;;;;;;;;;;5043085;28;20048;-66
2022/05/19 11:56:10;;;;;;;5.05;2.05;;;;;;;;;;5056771;28;20108;-66
2022/05/19 11:58:38;;;;;;;;;;;;;;;;;;5048636;28;20084;-67
2022/05/19 12:01:04;;;;;;;;;;;;;;;;;;5044065;28;19967;-66
2022/05/19 12:03:30;;;;;;;;;;;;;;;;;;5039614;28;19925;-63
2022/05/19 12:05:57;;;;;;;;;;;;;;;;;;5017553;28;19929;-64
2022/05/19 12:08:25;;;;;;;;;;;;;;;;;;5029742;28;20033;-63
2022/05/19 12:10:51;;;;;;;;;;;;;;;;;;5016911;28;19924;-65
2022/05/19 12:13:19;;;;;;;;;;;;;;;;;;5025147;28;19925;-64
2022/05/19 12:15:45;;;;;;;;;;;;;;;;;;5032117;28;19985;-67
2022/05/19 12:18:12;;;;;;;;;;;;;;;;;;5025794;28;19925;-63
2022/05/19 12:20:38;;;;;;;;;;;;;;;;;;5036319;28;20019;-62
2022/05/19 12:23:04;;;;;;;;;;;;;;;;;;5013834;28;19932;-63
2022/05/19 12:25:31;;;;;;;;;;;;;;;;;;5021362;28;20052;-62
2022/05/19 12:27:58;;;;;;;;;;;;;;;;;;5003328;28;20060;-63
2022/05/19 12:33:09;;;;;;;;;;;;;;;;;;5025847;28;19984;-65
2022/05/19 12:35:35;;;;;;;;;;;;;;;;;;5026592;28;20037;-66
2022/05/19 12:38:01;;;;;;;;;;;;;;;;;;5017673;28;19925;-64
2022/05/19 12:40:28;;;;;;;;;;;;;;;;;;5013049;28;19929;-62
2022/05/19 12:42:54;;;;;;;;;;;;;;;;;;5028303;28;19973;-63
2022/05/19 12:45:20;;;;;;;;;;;;;;;;;;5018500;28;19990;-63
2022/05/19 12:47:47;;;;;;;;;;;;;;;;;;5028013;28;19928;-64
2022/05/19 12:50:13;;;;;;;;;;;;;;;;;;5016988;28;20023;-63
2022/05/19 12:52:40;;;;;;;;;;;;;;;;;;5034239;28;20027;-62
2022/05/19 12:55:07;;;;;;;;;;;;;;;;;;5023445;28;19928;-64
2022/05/19 12:57:34;;;;;;;;;;;;;;;;;;5039985;28;20012;-66
2022/05/19 13:00:00;;;;;;;;;;;;;;;;;;5022613;28;19978;-63
2022/05/19 13:02:27;;;;;;;;;;;;;;;;;;5023278;28;19961;-68
2022/05/19 17:03:03;;;;;;;;;;;;;;;;;;5093522;22;19984;-63
2022/05/19 17:05:29;;;;;;;;;;;;;;;;;;5056401;28;19928;-63
2022/05/19 17:07:56;;;;;;;;;;;;;;;;;;5043416;28;19974;-62
2022/05/19 17:10:22;;;;;;;;;;;;;;;;;;5049315;28;19921;-63
2022/05/19 17:12:49;;;;;;;;;;;;;;;;;;5070995;28;20007;-62
2022/05/19 17:15:15;;;;;;;;;;;;;;;;;;5082157;28;19987;-63
2022/05/19 17:17:42;;;;;;;;;;;;;;;;;;5042798;28;19948;-63
2022/05/19 17:20:08;;;;;;;;;;;;;;;;;;5041064;28;19924;-63
2022/05/19 17:22:34;;;;;;;;;;;;;;;;;;5035392;28;19925;-63
2022/05/19 17:25:01;;;;;;;;;;;;;;;;;;5048904;28;19979;-64
2022/05/19 17:27:27;;;;;;;;;;;;;;;;;;5042721;28;19927;-63
2022/05/19 17:29:53;;;;;;;;;;;;;;;;;;5055093;28;19931;-63
2022/05/19 17:32:20;;;;;;;;;;;;;;;;;;5056910;28;19946;-64
2022/05/19 17:34:47;;;;;;;;;;;;;;;;;;5053925;28;19924;-64
2022/05/19 17:37:13;;;;;;;;;;;;;;;;;;5044726;28;19924;-64
2022/05/19 17:39:39;;;;;;;;;;;;;;;;;;5064028;28;19925;-64
2022/05/19 17:42:05;;;;;;;;;;;;;;;;;;5051786;28;19924;-63
2022/05/19 17:44:32;;;;;;;;;;;;;;;;;;5044108;28;19924;-62
2022/05/19 17:46:59;;;;;;;;;;;;;;;;;;5036879;28;19986;-62
2022/05/19 17:49:26;;;;;;;;;;;;;;;;;;5053224;28;19971;-64
2022/05/19 17:51:53;;;;;;;;;;;;;;;;;;5059176;28;19967;-63
2022/05/19 17:54:19;;;;;;;;;;;;;;;;;;5032058;28;20016;-63
2022/05/19 17:56:47;;;;;;;;;;;;;;;;;;5048611;28;19928;-63
2022/05/19 18:00:11;;;;;;;12.60;4.40;;;;;;;;;;5109293;27;20372;-60
2022/05/19 18:02:37;;;;;;;12.50;4.68;;;;;;;;;;5103245;28;20066;-60
2022/05/19 18:05:04;;;;;;;8.57;3.75;;;;;;;;;;5091967;28;20056;-60
2022/05/19 18:07:32;;;;;;;9.05;4.72;;;;;;;;;;5103564;28;20048;-60
2022/05/19 18:09:59;;;;;;;7.20;3.28;;;;;;;;;;5096204;28;20083;-60
2022/05/19 18:12:26;;;;;;;8.15;3.75;;;;;;;;;;5103730;28;20068;-60
2022/05/19 18:20:22;;;;;;;13.88;4.43;;;;;;;;;;5096457;28;20059;-60
2022/05/19 18:22:48;;;;;;;12.90;4.82;;;;;;;;;;5102782;28;20055;-60
2022/05/19 18:25:15;;;;;;;10.82;4.32;;;;;;;;;;5097376;28;20077;-61
2022/05/19 18:27:41;;;;;;;11.82;4.43;;;;;;;;;;5100817;28;20043;-61
2022/05/19 18:30:09;;;;;;;6.93;2.88;;;;;;;;;;5096899;28;20067;-60
2022/05/19 18:32:36;;;;;;;11.32;4.38;;;;;;;;;;5101115;28;20048;-61
2022/05/19 18:35:04;;;;;;;12.65;4.80;;;;;;;;;;5097176;28;20055;-60
2022/05/19 18:37:30;;;;;;;8.82;3.65;;;;;;;;;;5102533;28;20044;-60
2022/05/19 18:39:57;;;;;;;9.02;4.35;;;;;;;;;;5097218;28;20063;-61
2022/05/19 18:45:08;;;;;;;11.23;4.82;;;;;;;;;;5091789;28;20189;-60
2022/05/19 18:47:41;;;;;;;9.15;3.95;;;;;;;;;;5095090;28;20048;-61
2022/05/19 18:50:11;;;;;;;10.80;4.20;;;;;;;;;;5097553;28;20128;-61
2022/05/19 18:52:37;;;;;;;13.40;5.30;;;;;;;;;;5102312;28;20051;-60
2022/05/19 18:55:04;;;;;;;10.88;4.90;;;;;;;;;;5098243;28;20054;-60
2022/05/19 18:57:31;;;;;;;8.90;3.50;;;;;;;;;;5095007;28;20105;-61
2022/05/19 18:59:58;;;;;;;6.30;2.80;;;;;;;;;;5101776;28;20138;-63
2022/05/19 19:02:25;;;;;;;7.75;3.40;;;;;;;;;;5095236;28;20139;-63
2022/05/19 19:04:52;;;;;;;10.93;4.25;;;;;;;;;;5100645;28;20047;-63
2022/05/19 19:07:21;;;;;;;14.13;4.28;;;;;;;;;;5095408;27;20159;-62
2022/05/19 19:09:48;;;;;;;15.20;5.10;;;;;;;;;;5098527;28;20040;-63
2022/05/19 19:12:14;;;;;;;8.77;3.80;;;;;;;;;;5082050;28;20055;-63
2022/05/19 19:14:41;;;;;;;6.97;3.05;;;;;;;;;;5089441;28;20044;-63
2022/05/19 19:17:07;;;;;;;7.18;2.95;;;;;;;;;;5079298;28;20052;-63
2022/05/19 19:19:34;;;;;;;12.55;5.18;;;;;;;;;;5088415;28;20078;-63
2022/05/19 19:22:01;;;;;;;5.68;3.58;;;;;;;;;;5080636;28;20052;-62
2022/05/19 19:24:35;;;;;;;16.67;5.72;;;;;;;;;;5100144;28;20048;-63
2022/05/19 19:27:05;;;;;;;9.02;3.40;;;;;;;;;;5082805;28;20101;-65
2022/05/19 19:29:32;;;;;;;14.88;5.70;;;;;;;;;;5087596;28;20064;-63
2022/05/19 19:31:58;;;;;;;8.10;3.40;;;;;;;;;;5081977;28;20055;-63
2022/05/19 19:34:25;;;;;;;7.57;2.97;;;;;;;;;;5088724;28;20053;-63
2022/05/19 19:36:51;;;;;;;8.25;2.95;;;;;;;;;;5082467;28;20040;-63
2022/05/19 19:39:18;;;;;;;7.85;3.05;;;;;;;;;;5087329;28;20051;-63
2022/05/19 19:41:46;;;;;;;10.57;4.55;;;;;;;;;;5086811;28;20047;-63